| time (UTC) | temp F | wind direction | speed MPH | gust MPH | rain 1hr in | rain 24hr in | rain mn in | humidity % | barometer mb |
| 20260906124908 | 81 | 105 | 1.0 | 1.0 | 0.00 | 0.00 | 0.00 | 86 | 1009.5 |
| 20260906124404 | 82 | 127 | 2.0 | 2.0 | 0.00 | 0.00 | 0.00 | 85 | 1009.5 |
| 20260906123904 | 83 | 206 | 1.0 | 1.0 | 0.00 | 0.00 | 0.00 | 82 | 1009.6 |
| 20260906123404 | 82 | 157 | 0.0 | 0.0 | 0.00 | 0.00 | 0.00 | 86 | 1009.5 |
| 20260906122904 | 81 | 158 | 1.0 | 1.0 | 0.00 | 0.00 | 0.00 | 88 | 1009.3 |
| 20260906122358 | 80 | 183 | 0.0 | 0.0 | 0.00 | 0.00 | 0.00 | 88 | 1009.3 |
| 20260906121855 | 80 | 166 | 1.0 | 1.0 | 0.00 | 0.00 | 0.00 | 90 | 1009.3 |
| 20260906121351 | 79 | 175 | 1.0 | 1.0 | 0.00 | 0.00 | 0.00 | 91 | 1009.6 |
| 20260906120847 | 78 | 174 | 0.0 | 0.0 | 0.00 | 0.00 | 0.00 | 94 | 1009.3 |
| 20260906120343 | 77 | 174 | 0.0 | 0.0 | 0.00 | 0.00 | 0.00 | 95 | 1009.2 |
| 20260906115839 | 76 | 173 | 1.0 | 1.0 | 0.00 | 0.00 | 0.00 | 96 | 1009.2 |
| 20260906115334 | 76 | 172 | 0.0 | 0.0 | 0.00 | 0.00 | 0.00 | 97 | 1009.1 |
| 20260906114833 | 75 | 171 | 1.0 | 1.0 | 0.00 | 0.00 | 0.00 | 97 | 1009.0 |
| 20260906114329 | 75 | 172 | 0.0 | 0.0 | 0.00 | 0.00 | 0.00 | 97 | 1009.0 |
| 20260906113824 | 75 | 172 | 0.0 | 0.0 | 0.00 | 0.00 | 0.00 | 97 | 1008.9 |
| 20260906113323 | 75 | 172 | 0.0 | 0.0 | 0.00 | 0.00 | 0.00 | 97 | 1008.7 |
| 20260906112818 | 75 | 172 | 1.0 | 1.0 | 0.00 | 0.00 | 0.00 | 98 | 1008.7 |
| 20260906112315 | 75 | 169 | 0.0 | 0.0 | 0.00 | 0.00 | 0.00 | 98 | 1008.6 |
| 20260906111814 | 75 | 168 | 1.0 | 1.0 | 0.00 | 0.00 | 0.00 | 98 | 1008.6 |
| 20260906111314 | 75 | 168 | 1.0 | 1.0 | 0.00 | 0.00 | 0.00 | 98 | 1008.5 |
| 20260906110809 | 75 | 170 | 0.0 | 0.0 | 0.00 | 0.00 | 0.00 | 98 | 1008.3 |
| 20260906110305 | 75 | 170 | 0.0 | 0.0 | 0.00 | 0.00 | 0.00 | 98 | 1008.4 |
| 20260906105803 | 75 | 171 | 0.0 | 0.0 | 0.00 | 0.00 | 0.00 | 98 | 1008.5 |
| 20260906105259 | 75 | 171 | 0.0 | 0.0 | 0.00 | 0.00 | 0.00 | 98 | 1008.6 |
| 20260906104755 | 75 | 171 | 0.0 | 0.0 | 0.00 | 0.00 | 0.00 | 98 | 1008.4 |
| 20260906104253 | 75 | 172 | 1.0 | 1.0 | 0.00 | 0.00 | 0.00 | 97 | 1008.3 |
| 20260906103752 | 75 | 172 | 1.0 | 1.0 | 0.00 | 0.00 | 0.00 | 98 | 1008.2 |
| 20260906103251 | 75 | 172 | 0.0 | 1.0 | 0.00 | 0.00 | 0.00 | 98 | 1008.4 |
| 20260906102748 | 75 | 172 | 0.0 | 0.0 | 0.00 | 0.00 | 0.00 | 98 | 1008.2 |
| 20260906102246 | 75 | 172 | 0.0 | 0.0 | 0.00 | 0.00 | 0.00 | 97 | 1008.2 |
| 20260906101741 | 75 | 172 | 0.0 | 0.0 | 0.00 | 0.00 | 0.00 | 97 | 1008.3 |
| 20260906101236 | 75 | 172 | 0.0 | 0.0 | 0.00 | 0.00 | 0.00 | 97 | 1008.1 |
| 20260906100732 | 75 | 172 | 0.0 | 0.0 | 0.00 | 0.00 | 0.00 | 97 | 1008.2 |
| 20260906100231 | 75 | 172 | 0.0 | 0.0 | 0.00 | 0.00 | 0.00 | 97 | 1008.3 |
| 20260906095727 | 75 | 172 | 0.0 | 0.0 | 0.00 | 0.00 | 0.00 | 97 | 1008.1 |
| 20260906095222 | 75 | 172 | 0.0 | 0.0 | 0.00 | 0.00 | 0.00 | 97 | 1008.2 |
| 20260906094720 | 75 | 172 | 0.0 | 0.0 | 0.00 | 0.00 | 0.00 | 97 | 1008.3 |
| 20260906094216 | 75 | 172 | 1.0 | 1.0 | 0.00 | 0.00 | 0.00 | 97 | 1008.2 |
| 20260906093713 | 75 | 172 | 0.0 | 0.0 | 0.00 | 0.00 | 0.00 | 97 | 1008.1 |
| 20260906093208 | 75 | 172 | 0.0 | 0.0 | 0.00 | 0.00 | 0.00 | 97 | 1008.1 |
| 20260906092703 | 75 | 172 | 0.0 | 0.0 | 0.00 | 0.00 | 0.00 | 97 | 1008.1 |
| 20260906092202 | 75 | 172 | 0.0 | 0.0 | 0.00 | 0.00 | 0.00 | 97 | 1008.2 |
| 20260906091658 | 75 | 172 | 0.0 | 0.0 | 0.00 | 0.00 | 0.00 | 97 | 1008.1 |
| 20260906091154 | 75 | 172 | 0.0 | 0.0 | 0.00 | 0.00 | 0.00 | 97 | 1007.8 |
| 20260906090651 | 75 | 172 | 0.0 | 0.0 | 0.00 | 0.00 | 0.00 | 97 | 1007.9 |
| 20260906090150 | 75 | 172 | 1.0 | 1.0 | 0.00 | 0.00 | 0.00 | 97 | 1007.9 |
| 20260906085649 | 75 | 172 | 1.0 | 1.0 | 0.00 | 0.00 | 0.00 | 97 | 1007.8 |
| 20260906085148 | 75 | 190 | 0.0 | 0.0 | 0.00 | 0.00 | 0.00 | 97 | 1007.8 |
| 20260906084643 | 75 | 190 | 1.0 | 1.0 | 0.00 | 0.00 | 0.00 | 97 | 1007.5 |
| 20260906084142 | 75 | 190 | 0.0 | 0.0 | 0.00 | 0.00 | 0.00 | 96 | 1007.5 |
| 20260906083638 | 75 | 190 | 0.0 | 0.0 | 0.00 | 0.00 | 0.00 | 96 | 1007.6 |
| 20260906083133 | 76 | 190 | 0.0 | 0.0 | 0.00 | 0.00 | 0.00 | 96 | 1007.6 |
| 20260906082628 | 76 | 190 | 0.0 | 0.0 | 0.00 | 0.00 | 0.00 | 96 | 1007.6 |
| 20260906082124 | 76 | 190 | 0.0 | 0.0 | 0.00 | 0.00 | 0.00 | 96 | 1007.5 |
| 20260906081620 | 76 | 190 | 1.0 | 0.0 | 0.00 | 0.00 | 0.00 | 96 | 1007.6 |
| 20260906081115 | 76 | 190 | 0.0 | 0.0 | 0.00 | 0.00 | 0.00 | 96 | 1007.5 |
| 20260906080611 | 76 | 190 | 0.0 | 0.0 | 0.00 | 0.00 | 0.00 | 96 | 1007.5 |
| 20260906080107 | 76 | 189 | 0.0 | 1.0 | 0.00 | 0.00 | 0.00 | 96 | 1007.7 |
| 20260906075607 | 76 | 186 | 0.0 | 0.0 | 0.00 | 0.00 | 0.00 | 96 | 1007.7 |
| 20260906075101 | 76 | 186 | 0.0 | 0.0 | 0.00 | 0.00 | 0.00 | 96 | 1007.7 |
| 20260906074556 | 76 | 185 | 0.0 | 0.0 | 0.00 | 0.00 | 0.00 | 96 | 1007.7 |
| 20260906074055 | 76 | 185 | 1.0 | 1.0 | 0.00 | 0.00 | 0.00 | 96 | 1007.8 |
| 20260906073550 | 75 | 191 | 0.0 | 0.0 | 0.00 | 0.00 | 0.00 | 96 | 1007.8 |
| 20260906073047 | 76 | 174 | 0.0 | 0.0 | 0.00 | 0.00 | 0.00 | 96 | 1007.7 |
| 20260906072546 | 76 | 174 | 0.0 | 0.0 | 0.00 | 0.00 | 0.00 | 96 | 1007.7 |
| 20260906072043 | 76 | 174 | 0.0 | 0.0 | 0.00 | 0.00 | 0.00 | 96 | 1007.9 |
| 20260906071539 | 76 | 174 | 1.0 | 1.0 | 0.00 | 0.00 | 0.00 | 96 | 1007.9 |
| 20260906071033 | 76 | 174 | 1.0 | 1.0 | 0.00 | 0.00 | 0.00 | 96 | 1008.0 |
| 20260906070530 | 76 | 174 | 0.0 | 0.0 | 0.00 | 0.00 | 0.00 | 96 | 1008.1 |
| 20260906070025 | 76 | 174 | 0.0 | 0.0 | 0.00 | 0.00 | 0.00 | 96 | 1007.9 |
| 20260906065525 | 76 | 174 | 0.0 | 0.0 | 0.00 | 0.00 | 0.00 | 96 | 1007.9 |
| 20260906065021 | 76 | 174 | 0.0 | 0.0 | 0.00 | 0.00 | 0.00 | 96 | 1008.1 |
| 20260906064516 | 76 | 174 | 0.0 | 0.0 | 0.00 | 0.00 | 0.00 | 96 | 1007.8 |
| 20260906064011 | 76 | 174 | 0.0 | 0.0 | 0.00 | 0.00 | 0.00 | 96 | 1007.9 |
| 20260906063506 | 76 | 174 | 0.0 | 0.0 | 0.00 | 0.00 | 0.00 | 95 | 1007.8 |
| 20260906063002 | 76 | 174 | 0.0 | 0.0 | 0.00 | 0.00 | 0.00 | 95 | 1008.0 |
| 20260906062456 | 76 | 174 | 0.0 | 0.0 | 0.00 | 0.00 | 0.00 | 95 | 1007.9 |
| 20260906061951 | 76 | 174 | 0.0 | 0.0 | 0.00 | 0.00 | 0.00 | 95 | 1007.8 |
| 20260906061448 | 76 | 174 | 0.0 | 0.0 | 0.00 | 0.00 | 0.00 | 95 | 1008.0 |
| 20260906060941 | 76 | 174 | 0.0 | 0.0 | 0.00 | 0.00 | 0.00 | 95 | 1008.0 |
| 20260906060438 | 76 | 174 | 1.0 | 1.0 | 0.00 | 0.00 | 0.00 | 95 | 1008.0 |
| 20260906055935 | 76 | 174 | 1.0 | 1.0 | 0.00 | 0.00 | 0.00 | 94 | 1008.2 |
| 20260906055430 | 76 | 175 | 0.0 | 0.0 | 0.00 | 0.00 | 0.00 | 94 | 1008.5 |
| 20260906054926 | 76 | 175 | 0.0 | 0.0 | 0.00 | 0.00 | 0.00 | 94 | 1008.2 |
| 20260906054420 | 76 | 175 | 0.0 | 0.0 | 0.00 | 0.00 | 0.00 | 94 | 1008.4 |
| 20260906053916 | 76 | 175 | 0.0 | 0.0 | 0.00 | 0.00 | 0.00 | 94 | 1008.8 |
| 20260906053412 | 76 | 175 | 0.0 | 0.0 | 0.00 | 0.00 | 0.00 | 93 | 1008.5 |
| 20260906052908 | 77 | 175 | 0.0 | 0.0 | 0.00 | 0.00 | 0.00 | 93 | 1008.6 |
| 20260906052404 | 77 | 175 | 0.0 | 0.0 | 0.00 | 0.00 | 0.00 | 93 | 1008.5 |
| 20260906051901 | 77 | 175 | 0.0 | 0.0 | 0.00 | 0.00 | 0.00 | 93 | 1008.5 |
| 20260906051400 | 77 | 175 | 1.0 | 1.0 | 0.00 | 0.00 | 0.00 | 93 | 1008.6 |
| 20260906050856 | 77 | 182 | 0.0 | 0.0 | 0.00 | 0.00 | 0.00 | 93 | 1008.4 |
| 20260906050351 | 77 | 182 | 0.0 | 1.0 | 0.00 | 0.00 | 0.00 | 93 | 1008.4 |
| 20260906045850 | 77 | 170 | 1.0 | 1.0 | 0.00 | 0.00 | 0.00 | 93 | 1008.2 |
| 20260906045349 | 77 | 167 | 1.0 | 1.0 | 0.00 | 0.00 | 0.00 | 92 | 1008.5 |
| 20260906044846 | 77 | 167 | 0.0 | 0.0 | 0.00 | 0.00 | 0.00 | 93 | 1008.4 |
| 20260906044345 | 77 | 167 | 1.0 | 1.0 | 0.00 | 0.00 | 0.00 | 93 | 1008.3 |
| 20260906043841 | 77 | 167 | 1.0 | 1.0 | 0.00 | 0.00 | 0.00 | 92 | 1008.3 |
| 20260906043337 | 77 | 166 | 0.0 | 0.0 | 0.00 | 0.00 | 0.00 | 92 | 1008.3 |
| 20260906042832 | 77 | 166 | 0.0 | 0.0 | 0.00 | 0.00 | 0.00 | 92 | 1008.6 |
| 20260906042331 | 77 | 165 | 0.0 | 0.0 | 0.00 | 0.00 | 0.00 | 92 | 1008.5 |
| 20260906041827 | 77 | 166 | 0.0 | 0.0 | 0.00 | 0.00 | 0.00 | 93 | 1008.3 |
| 20260906041322 | 77 | 166 | 0.0 | 0.0 | 0.00 | 0.00 | 0.00 | 93 | 1008.4 |
| 20260906040822 | 77 | 166 | 1.0 | 1.0 | 0.00 | 0.00 | 0.00 | 93 | 1008.6 |
| 20260906040317 | 77 | 163 | 0.0 | 0.0 | 0.00 | 0.00 | 0.00 | 92 | 1008.6 |
| 20260906035813 | 77 | 163 | 0.0 | 0.0 | 0.00 | 0.40 | 0.40 | 92 | 1008.6 |
| 20260906035308 | 77 | 163 | 0.0 | 0.0 | 0.00 | 0.40 | 0.40 | 91 | 1009.0 |
| 20260906034804 | 77 | 163 | 0.0 | 0.0 | 0.00 | 0.40 | 0.40 | 91 | 1009.3 |
| 20260906034303 | 77 | 163 | 0.0 | 0.0 | 0.00 | 0.40 | 0.40 | 91 | 1009.2 |
| 20260906033759 | 77 | 162 | 0.0 | 0.0 | 0.00 | 0.40 | 0.40 | 91 | 1009.1 |
| 20260906033258 | 77 | 163 | 0.0 | 0.0 | 0.00 | 0.40 | 0.40 | 90 | 1009.3 |
| 20260906032755 | 77 | 163 | 0.0 | 0.0 | 0.00 | 0.40 | 0.40 | 90 | 1009.5 |
| 20260906032255 | 77 | 163 | 0.0 | 0.0 | 0.00 | 0.40 | 0.40 | 91 | 1009.4 |
| 20260906031751 | 77 | 163 | 1.0 | 1.0 | 0.00 | 0.40 | 0.40 | 90 | 1009.5 |
| 20260906031247 | 77 | 162 | 1.0 | 1.0 | 0.00 | 0.40 | 0.40 | 90 | 1009.4 |
| 20260906030746 | 77 | 161 | 0.0 | 0.0 | 0.00 | 0.40 | 0.40 | 89 | 1009.3 |
| 20260906030241 | 77 | 161 | 0.0 | 0.0 | 0.00 | 0.40 | 0.40 | 88 | 1009.2 |
| 20260906025741 | 77 | 134 | 0.0 | 0.0 | 0.00 | 0.40 | 0.40 | 88 | 1009.4 |
| 20260906025235 | 77 | 125 | 0.0 | 1.0 | 0.00 | 0.40 | 0.40 | 88 | 1009.5 |
| 20260906024734 | 77 | 172 | 1.0 | 1.0 | 0.00 | 0.40 | 0.40 | 88 | 1009.6 |
| 20260906024233 | 77 | 173 | 0.0 | 0.0 | 0.00 | 0.40 | 0.40 | 88 | 1009.3 |
| 20260906023729 | 77 | 172 | 0.0 | 0.0 | 0.00 | 0.40 | 0.40 | 88 | 1009.2 |
| 20260906023225 | 78 | 173 | 0.0 | 0.0 | 0.00 | 0.40 | 0.40 | 88 | 1009.2 |
| 20260906022720 | 78 | 172 | 0.0 | 0.0 | 0.00 | 0.40 | 0.40 | 88 | 1009.3 |
| 20260906022215 | 77 | 173 | 0.0 | 0.0 | 0.00 | 0.40 | 0.40 | 87 | 1009.0 |
| 20260906021711 | 78 | 173 | 0.0 | 0.0 | 0.00 | 0.40 | 0.40 | 87 | 1008.9 |
| 20260906021210 | 78 | 173 | 1.0 | 1.0 | 0.00 | 0.40 | 0.40 | 87 | 1008.9 |
| 20260906020705 | 78 | 173 | 0.0 | 0.0 | 0.00 | 0.40 | 0.40 | 87 | 1008.9 |
| 20260906020200 | 78 | 173 | 1.0 | 1.0 | 0.00 | 0.40 | 0.40 | 86 | 1008.7 |
| 20260906015700 | 78 | 173 | 1.0 | 1.0 | 0.00 | 0.40 | 0.40 | 86 | 1009.0 |
| 20260906015158 | 78 | 173 | 1.0 | 1.0 | 0.00 | 0.40 | 0.40 | 85 | 1008.7 |
| 20260906014658 | 79 | 179 | 1.0 | 0.0 | 0.00 | 0.40 | 0.40 | 84 | 1008.9 |
| 20260906014155 | 79 | 179 | 0.0 | 0.0 | 0.00 | 0.40 | 0.40 | 85 | 1008.8 |
| 20260906013650 | 79 | 179 | 0.0 | 0.0 | 0.00 | 0.40 | 0.40 | 84 | 1008.6 |
| 20260906013145 | 80 | 179 | 1.0 | 1.0 | 0.00 | 0.40 | 0.40 | 84 | 1008.7 |
| 20260906012646 | 79 | 179 | 1.0 | 1.0 | 0.00 | 0.40 | 0.40 | 84 | 1008.7 |
| 20260906012145 | 79 | 181 | 0.0 | 1.0 | 0.00 | 0.40 | 0.40 | 83 | 1008.5 |
| 20260906011641 | 79 | 181 | 0.0 | 0.0 | 0.00 | 0.40 | 0.40 | 83 | 1008.3 |
| 20260906011136 | 80 | 174 | 1.0 | 1.0 | 0.00 | 0.40 | 0.40 | 83 | 1008.2 |
| 20260906010631 | 80 | 176 | 0.0 | 0.0 | 0.00 | 0.40 | 0.40 | 82 | 1008.2 |
| 20260906010128 | 80 | 176 | 0.0 | 0.0 | 0.00 | 0.40 | 0.40 | 82 | 1008.3 |
| 20260906005627 | 80 | 176 | 0.0 | 0.0 | 0.00 | 0.40 | 0.40 | 82 | 1008.3 |
| 20260906005127 | 80 | 195 | 0.0 | 0.0 | 0.00 | 0.40 | 0.40 | 82 | 1008.2 |
| 20260906004626 | 80 | 167 | 1.0 | 1.0 | 0.00 | 0.40 | 0.40 | 83 | 1007.9 |
| 20260906004121 | 80 | 183 | 0.0 | 0.0 | 0.00 | 0.40 | 0.40 | 83 | 1007.7 |
| 20260906003616 | 80 | 178 | 0.0 | 1.0 | 0.00 | 0.40 | 0.40 | 83 | 1007.6 |
| 20260906003112 | 80 | 184 | 0.0 | 1.0 | 0.00 | 0.40 | 0.40 | 84 | 1007.5 |
| 20260906002612 | 81 | 182 | 0.0 | 0.0 | 0.00 | 0.40 | 0.40 | 83 | 1007.6 |
| 20260906002107 | 81 | 183 | 0.0 | 0.0 | 0.00 | 0.40 | 0.40 | 83 | 1007.5 |
| 20260906001603 | 81 | 179 | 1.0 | 1.0 | 0.00 | 0.40 | 0.40 | 83 | 1007.6 |
| 20260906001102 | 81 | 255 | 2.0 | 2.0 | 0.00 | 0.40 | 0.40 | 83 | 1007.4 |
| 20260906000559 | 82 | 150 | 0.0 | 0.0 | 0.00 | 0.40 | 0.40 | 82 | 1007.6 |
| 20260906000054 | 82 | 189 | 0.0 | 0.0 | 0.00 | 0.40 | 0.40 | 84 | 1007.5 |
| 20260905235553 | 82 | 195 | 1.0 | 1.0 | 0.00 | 0.40 | 0.40 | 83 | 1007.6 |
| 20260905235048 | 82 | 175 | 1.0 | 1.0 | 0.00 | 0.40 | 0.40 | 82 | 1007.4 |
| 20260905234543 | 83 | 182 | 0.0 | 1.0 | 0.00 | 0.40 | 0.40 | 82 | 1007.4 |
| 20260905234039 | 83 | 283 | 3.0 | 3.0 | 0.00 | 0.40 | 0.40 | 81 | 1007.3 |
| 20260905233538 | 83 | 192 | 0.0 | 0.0 | 0.00 | 0.40 | 0.40 | 80 | 1007.5 |
| 20260905233038 | 84 | 177 | 0.0 | 1.0 | 0.00 | 0.40 | 0.40 | 80 | 1007.5 |
| 20260905232533 | 84 | 181 | 0.0 | 0.0 | 0.00 | 0.40 | 0.40 | 80 | 1007.7 |
| 20260905232029 | 84 | 269 | 3.0 | 3.0 | 0.00 | 0.40 | 0.40 | 79 | 1007.5 |
| 20260905231524 | 85 | 105 | 1.0 | 1.0 | 0.00 | 0.40 | 0.40 | 80 | 1007.5 |
| 20260905231021 | 86 | 268 | 4.0 | 4.0 | 0.00 | 0.40 | 0.40 | 77 | 1007.7 |
| 20260905230520 | 86 | 178 | 0.0 | 0.0 | 0.00 | 0.40 | 0.40 | 77 | 1007.5 |
| 20260905230018 | 86 | 178 | 0.0 | 0.0 | 0.00 | 0.40 | 0.40 | 77 | 1007.5 |
| 20260905225513 | 86 | 181 | 0.0 | 1.0 | 0.00 | 0.40 | 0.40 | 76 | 1007.6 |
| 20260905225008 | 87 | 182 | 1.0 | 1.0 | 0.00 | 0.40 | 0.40 | 76 | 1008.0 |
| 20260905224503 | 88 | 184 | 1.0 | 1.0 | 0.00 | 0.40 | 0.40 | 72 | 1007.8 |
| 20260905224002 | 89 | 183 | 0.0 | 0.0 | 0.00 | 0.40 | 0.40 | 70 | 1007.9 |
| 20260905223500 | 90 | 175 | 0.0 | 0.0 | 0.00 | 0.40 | 0.40 | 67 | 1007.9 |
| 20260905222955 | 91 | 171 | 1.0 | 1.0 | 0.00 | 0.40 | 0.40 | 66 | 1008.0 |
| 20260905222455 | 91 | 192 | 1.0 | 1.0 | 0.00 | 0.40 | 0.40 | 66 | 1008.1 |
| 20260905221951 | 91 | 197 | 2.0 | 2.0 | 0.00 | 0.40 | 0.40 | 64 | 1008.2 |
| 20260905221447 | 91 | 179 | 1.0 | 1.0 | 0.00 | 0.40 | 0.40 | 66 | 1008.3 |
| 20260905220943 | 91 | 164 | 1.0 | 1.0 | 0.00 | 0.40 | 0.40 | 65 | 1008.3 |
| 20260905220439 | 91 | 171 | 1.0 | 1.0 | 0.00 | 0.40 | 0.40 | 65 | 1008.4 |
| 20260905215938 | 91 | 195 | 1.0 | 1.0 | 0.00 | 0.40 | 0.40 | 68 | 1008.3 |
| 20260905215433 | 91 | 201 | 2.0 | 2.0 | 0.00 | 0.40 | 0.40 | 67 | 1008.4 |
| 20260905214930 | 93 | 288 | 3.0 | 3.0 | 0.00 | 0.40 | 0.40 | 63 | 1008.3 |
| 20260905214426 | 92 | 206 | 0.0 | 0.0 | 0.00 | 0.40 | 0.40 | 66 | 1008.4 |
| 20260905213925 | 92 | 212 | 1.0 | 1.0 | 0.00 | 0.40 | 0.40 | 65 | 1008.6 |
| 20260905213422 | 93 | 220 | 2.0 | 3.0 | 0.00 | 0.40 | 0.40 | 67 | 1008.6 |
| 20260905212917 | 92 | 191 | 1.0 | 1.0 | 0.00 | 0.40 | 0.40 | 65 | 1008.4 |
| 20260905212412 | 92 | 186 | 1.0 | 1.0 | 0.00 | 0.40 | 0.40 | 67 | 1008.2 |
| 20260905211911 | 92 | 180 | 1.0 | 1.0 | 0.00 | 0.40 | 0.40 | 66 | 1008.1 |
| 20260905211407 | 92 | 318 | 4.0 | 4.0 | 0.00 | 0.40 | 0.40 | 64 | 1008.1 |
| 20260905210903 | 91 | 301 | 1.0 | 1.0 | 0.00 | 0.40 | 0.40 | 66 | 1008.2 |
| 20260905210402 | 90 | 209 | 1.0 | 1.0 | 0.00 | 0.40 | 0.40 | 70 | 1008.0 |
| 20260905205902 | 89 | 180 | 0.0 | 0.0 | 0.00 | 0.40 | 0.40 | 71 | 1008.2 |
| 20260905205357 | 90 | 315 | 2.0 | 3.0 | 0.00 | 0.40 | 0.40 | 71 | 1008.1 |
| 20260905204855 | 91 | 192 | 2.0 | 2.0 | 0.00 | 0.40 | 0.40 | 71 | 1008.1 |
| 20260905204352 | 90 | 213 | 1.0 | 1.0 | 0.00 | 0.40 | 0.40 | 69 | 1008.2 |
| 20260905203850 | 89 | 199 | 1.0 | 1.0 | 0.00 | 0.40 | 0.40 | 73 | 1008.0 |
| 20260905203347 | 88 | 189 | 0.0 | 0.0 | 0.00 | 0.40 | 0.40 | 78 | 1008.1 |
| 20260905202843 | 87 | 181 | 0.0 | 0.0 | 0.00 | 0.40 | 0.40 | 76 | 1008.4 |
| 20260905202342 | 87 | 178 | 1.0 | 1.0 | 0.00 | 0.40 | 0.40 | 79 | 1008.6 |
| 20260905201839 | 87 | 187 | 1.0 | 1.0 | 0.00 | 0.40 | 0.40 | 77 | 1008.7 |
| 20260905201334 | 87 | 186 | 0.0 | 1.0 | 0.00 | 0.40 | 0.40 | 77 | 1008.7 |
| 20260905200833 | 87 | 189 | 0.0 | 0.0 | 0.00 | 0.40 | 0.40 | 80 | 1008.7 |
| 20260905200330 | 87 | 175 | 1.0 | 1.0 | 0.00 | 0.40 | 0.40 | 79 | 1008.7 |
| 20260905195827 | 87 | 192 | 1.0 | 1.0 | 0.00 | 0.40 | 0.40 | 79 | 1008.9 |
| 20260905195323 | 86 | 191 | 1.0 | 0.0 | 0.00 | 0.40 | 0.40 | 83 | 1008.7 |
| 20260905194819 | 85 | 245 | 1.0 | 1.0 | 0.00 | 0.40 | 0.40 | 81 | 1008.8 |
| 20260905194318 | 84 | 224 | 2.0 | 2.0 | 0.00 | 0.40 | 0.40 | 85 | 1008.9 |
| 20260905193818 | 84 | 246 | 1.0 | 1.0 | 0.00 | 0.40 | 0.40 | 85 | 1008.9 |
| 20260905193313 | 83 | 182 | 1.0 | 1.0 | 0.00 | 0.40 | 0.40 | 86 | 1009.1 |
| 20260905192808 | 82 | 170 | 0.0 | 0.0 | 0.00 | 0.40 | 0.40 | 89 | 1009.1 |
| 20260905192306 | 82 | 192 | 0.0 | 1.0 | 0.00 | 0.40 | 0.40 | 89 | 1009.3 |
| 20260905191803 | 82 | 178 | 1.0 | 1.0 | 0.00 | 0.40 | 0.40 | 92 | 1009.2 |
| 20260905191302 | 82 | 167 | 2.0 | 2.0 | 0.00 | 0.40 | 0.40 | 92 | 1009.1 |
| 20260905190801 | 82 | 188 | 1.0 | 1.0 | 0.00 | 0.40 | 0.40 | 91 | 1009.1 |
| 20260905190255 | 81 | 187 | 0.0 | 0.0 | 0.00 | 0.40 | 0.40 | 91 | 1009.1 |
| 20260905185754 | 81 | 187 | 1.0 | 1.0 | 0.00 | 0.40 | 0.40 | 91 | 1009.2 |
| 20260905185249 | 81 | 187 | 1.0 | 1.0 | 0.00 | 0.40 | 0.40 | 89 | 1009.4 |
| 20260905184748 | 81 | 188 | 0.0 | 0.0 | 0.00 | 0.40 | 0.40 | 91 | 1009.4 |
| 20260905184247 | 81 | 203 | 0.0 | 0.0 | 0.00 | 0.40 | 0.40 | 93 | 1009.4 |
| 20260905183747 | 80 | 203 | 0.0 | 0.0 | 0.00 | 0.40 | 0.40 | 92 | 1009.5 |
| 20260905183242 | 80 | 204 | 1.0 | 1.0 | 0.00 | 0.40 | 0.40 | 92 | 1009.5 |
| 20260905182742 | 80 | 220 | 1.0 | 1.0 | 0.00 | 0.40 | 0.40 | 91 | 1009.6 |
| 20260905182242 | 80 | 206 | 1.0 | 1.0 | 0.00 | 0.40 | 0.40 | 92 | 1009.5 |
| 20260905181737 | 81 | 209 | 0.0 | 1.0 | 0.24 | 0.40 | 0.40 | 93 | 1009.8 |
| 20260905181236 | 82 | 209 | 0.0 | 0.0 | 0.73 | 0.40 | 0.40 | 91 | 1009.9 |
| 20260905180731 | 84 | 177 | 0.0 | 0.0 | 0.54 | 0.37 | 0.37 | 86 | 1010.0 |
| 20260905180227 | 86 | 205 | 1.0 | 1.0 | 0.00 | 0.28 | 0.28 | 81 | 1010.1 |
| 20260905175726 | 86 | 214 | 1.0 | 1.0 | 0.00 | 0.28 | 0.28 | 78 | 1009.9 |
| 20260905175221 | 87 | 170 | 1.0 | 1.0 | 0.00 | 0.28 | 0.28 | 76 | 1010.0 |
| 20260905174716 | 89 | 193 | 1.0 | 1.0 | 0.00 | 0.28 | 0.28 | 74 | 1010.0 |
| 20260905174212 | 89 | 206 | 1.0 | 1.0 | 0.00 | 0.28 | 0.28 | 73 | 1009.9 |
| 20260905173708 | 88 | 209 | 1.0 | 1.0 | 0.00 | 0.28 | 0.28 | 71 | 1009.7 |
| 20260905173204 | 89 | 342 | 2.0 | 3.0 | 0.00 | 0.28 | 0.28 | 69 | 1010.1 |
| 20260905172703 | 89 | 247 | 2.0 | 2.0 | 0.00 | 0.28 | 0.28 | 72 | 1010.0 |
| 20260905172203 | 89 | 73 | 4.0 | 6.0 | 0.00 | 0.28 | 0.28 | 69 | 1010.0 |
| 20260905171659 | 90 | 268 | 4.0 | 4.0 | 0.00 | 0.28 | 0.28 | 68 | 1009.9 |
| 20260905171155 | 90 | 40 | 8.0 | 10.0 | 0.00 | 0.28 | 0.28 | 66 | 1010.1 |
| 20260905170652 | 90 | 321 | 3.0 | 3.0 | 0.00 | 0.28 | 0.28 | 67 | 1010.1 |
| 20260905170146 | 89 | 213 | 3.0 | 4.0 | 0.00 | 0.28 | 0.28 | 71 | 1010.1 |
| 20260905165646 | 89 | 320 | 4.0 | 6.0 | 0.00 | 0.28 | 0.28 | 71 | 1010.0 |
| 20260905165141 | 88 | 279 | 2.0 | 2.0 | 0.00 | 0.28 | 0.28 | 76 | 1010.3 |
| 20260905164636 | 87 | 325 | 4.0 | 4.0 | 0.00 | 0.28 | 0.28 | 73 | 1010.3 |
| 20260905164135 | 87 | 354 | 4.0 | 4.0 | 0.00 | 0.28 | 0.28 | 74 | 1010.4 |
| 20260905163632 | 86 | 48 | 2.0 | 3.0 | 0.00 | 0.28 | 0.28 | 77 | 1010.4 |
| 20260905163128 | 85 | 261 | 3.0 | 4.0 | 0.00 | 0.28 | 0.28 | 79 | 1010.6 |
| 20260905162624 | 84 | 349 | 3.0 | 3.0 | 0.00 | 0.28 | 0.28 | 84 | 1011.0 |
| 20260905162123 | 83 | 54 | 1.0 | 1.0 | 0.00 | 0.28 | 0.28 | 84 | 1011.1 |
| 20260905161623 | 82 | 350 | 2.0 | 3.0 | 0.00 | 0.28 | 0.28 | 85 | 1011.2 |
| 20260905161121 | 82 | 197 | 1.0 | 1.0 | 0.00 | 0.28 | 0.28 | 88 | 1011.2 |
| 20260905160620 | 83 | 14 | 5.0 | 4.0 | 0.00 | 0.28 | 0.28 | 84 | 1011.2 |
| 20260905160115 | 84 | 22 | 2.0 | 3.0 | 0.00 | 0.28 | 0.28 | 84 | 1011.4 |
| 20260905155609 | 85 | 319 | 3.0 | 3.0 | 0.00 | 0.28 | 0.28 | 84 | 1011.2 |
| 20260905155108 | 85 | 287 | 2.0 | 2.0 | 0.00 | 0.28 | 0.28 | 84 | 1011.0 |
| 20260905154608 | 84 | 211 | 0.0 | 0.0 | 0.00 | 0.28 | 0.28 | 88 | 1011.0 |
| 20260905154104 | 82 | 167 | 1.0 | 1.0 | 0.00 | 0.28 | 0.28 | 94 | 1011.2 |
| 20260905153559 | 80 | 150 | 0.0 | 0.0 | 0.00 | 0.28 | 0.28 | 91 | 1011.2 |
| 20260905153054 | 80 | 144 | 1.0 | 1.0 | 0.24 | 0.28 | 0.28 | 89 | 1011.1 |
| 20260905152549 | 80 | 164 | 1.0 | 1.0 | 0.90 | 0.28 | 0.28 | 92 | 1011.2 |
| 20260905152044 | 80 | 92 | 1.0 | 1.0 | 1.49 | 0.26 | 0.26 | 89 | 1011.3 |
| 20260905151539 | 82 | 189 | 0.0 | 0.0 | 1.04 | 0.17 | 0.17 | 88 | 1011.3 |
| 20260905151035 | 85 | 305 | 4.0 | 4.0 | 0.07 | 0.01 | 0.01 | 84 | 1011.3 |
| 20260905150529 | 87 | 319 | 3.0 | 3.0 | 0.00 | 0.00 | 0.00 | 76 | 1011.3 |
| 20260905150028 | 88 | 211 | 1.0 | 1.0 | 0.00 | 0.00 | 0.00 | 72 | 1011.2 |
| 20260905145527 | 87 | 199 | 1.0 | 1.0 | 0.00 | 0.00 | 0.00 | 73 | 1011.0 |
| 20260905145026 | 87 | 198 | 1.0 | 1.0 | 0.00 | 0.00 | 0.00 | 75 | 1011.2 |
| 20260905144521 | 88 | 334 | 1.0 | 1.0 | 0.00 | 0.00 | 0.00 | 72 | 1011.2 |
| 20260905144020 | 88 | 123 | 2.0 | 2.0 | 0.00 | 0.00 | 0.00 | 73 | 1011.2 |
| 20260905143520 | 88 | 326 | 4.0 | 6.0 | 0.00 | 0.00 | 0.00 | 73 | 1011.4 |
| 20260905143015 | 88 | 170 | 0.0 | 0.0 | 0.00 | 0.00 | 0.00 | 72 | 1011.2 |
| 20260905142514 | 90 | 176 | 1.0 | 1.0 | 0.00 | 0.00 | 0.00 | 71 | 1011.1 |
| 20260905142009 | 91 | 172 | 1.0 | 1.0 | 0.00 | 0.00 | 0.00 | 69 | 1011.3 |
| 20260905141509 | 89 | 195 | 0.0 | 0.0 | 0.00 | 0.00 | 0.00 | 72 | 1011.1 |
| 20260905141006 | 88 | 191 | 0.0 | 0.0 | 0.00 | 0.00 | 0.00 | 76 | 1011.4 |
| 20260905140501 | 87 | 285 | 3.0 | 3.0 | 0.00 | 0.00 | 0.00 | 76 | 1011.5 |
| 20260905135959 | 87 | 114 | 1.0 | 1.0 | 0.00 | 0.00 | 0.00 | 76 | 1011.3 |
| 20260905135455 | 87 | 184 | 1.0 | 1.0 | 0.00 | 0.00 | 0.00 | 79 | 1011.3 |
| 20260905134950 | 85 | 211 | 2.0 | 3.0 | 0.00 | 0.00 | 0.00 | 81 | 1011.3 |
| 20260905134449 | 86 | 62 | 2.0 | 2.0 | 0.00 | 0.00 | 0.00 | 81 | 1011.1 |
| 20260905133949 | 85 | 166 | 0.0 | 0.0 | 0.00 | 0.00 | 0.00 | 82 | 1011.2 |
| 20260905133444 | 83 | 210 | 1.0 | 1.0 | 0.00 | 0.00 | 0.00 | 84 | 1011.0 |
| 20260905132943 | 84 | 286 | 4.0 | 6.0 | 0.00 | 0.00 | 0.00 | 84 | 1011.3 |
| 20260905132438 | 86 | 191 | 1.0 | 1.0 | 0.00 | 0.00 | 0.00 | 80 | 1011.2 |
| 20260905131933 | 86 | 196 | 1.0 | 1.0 | 0.00 | 0.00 | 0.00 | 80 | 1011.2 |
| 20260905131429 | 84 | 172 | 0.0 | 1.0 | 0.00 | 0.00 | 0.00 | 84 | 1011.2 |
| 20260905130924 | 81 | 195 | 1.0 | 1.0 | 0.00 | 0.00 | 0.00 | 90 | 1011.2 |
| 20260905130423 | 81 | 195 | 1.0 | 1.0 | 0.00 | 0.00 | 0.00 | 90 | 1011.2 |
| 20260905125923 | 80 | 186 | 2.0 | 2.0 | 0.00 | 0.00 | 0.00 | 91 | 1011.3 |
| 20260905125418 | 79 | 163 | 0.0 | 0.0 | 0.00 | 0.00 | 0.00 | 94 | 1011.1 |